Time;durP1;ratioP1;P1;durP2;ratioP2;P2;SDS_P1;SDS_P2;PMS_P1;PMS_P2;Temp;Humidity;BMP_temperature;BMP_pressure;BME280_temperature;BME280_humidity;BME280_pressure;Samples;Min_cycle;Max_cycle;Signal;HPM_P1;HPM_P2
2020/12/22 00:01:10;;;;;;;18.33;11.40;;;;;;;4.99;90.76;100388.63;5070052;28;20068;-71
2020/12/22 00:03:36;;;;;;;24.65;12.82;;;;;;;4.97;90.88;100369.41;5070864;28;20041;-71
2020/12/22 00:06:01;;;;;;;16.93;10.87;;;;;;;4.99;90.84;100370.09;5053144;28;20060;-71
2020/12/22 00:08:26;;;;;;;19.00;12.00;;;;;;;4.99;90.84;100372.75;5070892;28;20047;-71
2020/12/22 00:10:52;;;;;;;20.87;12.07;;;;;;;4.96;91.06;100354.47;5070052;28;20036;-71
2020/12/22 00:13:17;;;;;;;17.67;11.97;;;;;;;5.01;91.23;100347.00;5071030;28;20468;-71
2020/12/22 00:15:42;;;;;;;21.17;10.93;;;;;;;4.97;91.30;100344.75;5069896;28;20462;-70
2020/12/22 00:18:08;;;;;;;19.70;12.07;;;;;;;4.99;91.35;100343.66;5070947;28;20112;-71
2020/12/22 00:20:33;;;;;;;22.73;12.30;;;;;;;4.98;91.45;100349.06;5071012;28;20443;-71
2020/12/22 00:22:59;;;;;;;20.53;12.17;;;;;;;4.97;91.77;100340.28;5070080;28;20508;-70
2020/12/22 00:25:24;;;;;;;21.53;13.43;;;;;;;4.97;91.86;100329.72;5069848;28;20044;-70
2020/12/22 00:27:49;;;;;;;22.83;14.03;;;;;;;4.95;91.90;100336.94;5069704;28;20050;-70
2020/12/22 00:30:14;;;;;;;23.80;13.20;;;;;;;4.97;92.03;100332.34;5070675;28;20094;-70
2020/12/22 00:32:40;;;;;;;31.90;15.40;;;;;;;5.00;91.97;100318.84;5070115;28;20068;-70
2020/12/22 00:35:05;;;;;;;24.97;12.67;;;;;;;5.02;91.98;100314.25;5069889;28;20075;-70
2020/12/22 00:37:31;;;;;;;23.30;14.20;;;;;;;5.02;91.92;100311.59;5070325;28;20063;-70
2020/12/22 00:39:56;;;;;;;25.38;13.95;;;;;;;5.01;91.92;100307.31;5069697;28;20028;-70
2020/12/22 00:42:21;;;;;;;21.73;13.93;;;;;;;5.02;92.05;100305.50;5070800;28;20112;-70
2020/12/22 00:44:47;;;;;;;21.93;14.67;;;;;;;5.03;92.02;100304.50;5069726;28;20477;-70
2020/12/22 00:47:12;;;;;;;23.17;13.17;;;;;;;5.02;92.14;100294.91;5070479;28;20081;-70
2020/12/22 00:49:38;;;;;;;24.63;14.13;;;;;;;5.05;91.94;100284.88;5069764;28;20043;-70
2020/12/22 00:52:03;;;;;;;22.93;14.20;;;;;;;5.04;92.02;100283.22;5070297;28;20040;-70
2020/12/22 00:54:29;;;;;;;26.97;14.10;;;;;;;5.07;92.06;100276.81;5074209;28;20475;-70
2020/12/22 00:56:54;;;;;;;22.17;13.50;;;;;;;5.06;92.23;100268.03;5072961;28;20430;-70
2020/12/22 00:59:31;;;;;;;25.92;15.25;;;;;;;5.06;92.27;100264.56;5057967;28;20453;-69
2020/12/22 01:02:03;;;;;;;26.43;15.87;;;;;;;5.06;92.25;100249.50;5074108;28;20051;-69
2020/12/22 01:04:28;;;;;;;27.02;15.55;;;;;;;5.05;92.41;100247.81;5073195;28;20104;-70
2020/12/22 01:06:53;;;;;;;25.93;15.00;;;;;;;5.12;92.33;100263.16;5072784;28;20040;-70
2020/12/22 01:09:19;;;;;;;25.93;13.97;;;;;;;5.17;92.14;100261.75;5073870;28;20075;-69
2020/12/22 01:11:44;;;;;;;17.75;11.32;;;;;;;5.22;92.16;100258.69;5072862;28;20048;-70
2020/12/22 01:14:10;;;;;;;20.80;13.60;;;;;;;5.21;92.04;100263.16;5073898;28;20119;-69
2020/12/22 01:16:35;;;;;;;20.47;13.00;;;;;;;5.20;92.33;100260.66;5073612;28;20040;-69
2020/12/22 01:19:00;;;;;;;25.07;15.17;;;;;;;5.17;92.17;100253.81;5072928;28;20028;-69
2020/12/22 01:21:26;;;;;;;23.63;14.13;;;;;;;5.19;92.37;100253.69;5072783;28;20051;-69
2020/12/22 01:23:51;;;;;;;22.10;13.63;;;;;;;5.20;92.39;100234.19;5072809;28;20044;-70
2020/12/22 01:26:21;;;;;;;21.33;13.27;;;;;;;5.20;92.62;100231.56;5073417;28;20495;-70
2020/12/22 01:28:47;;;;;;;25.48;14.70;;;;;;;5.18;92.70;100225.56;5073575;28;20037;-70
2020/12/22 01:31:22;;;;;;;18.73;11.77;;;;;;;5.21;92.76;100212.88;5073587;28;20059;-70
2020/12/22 01:33:47;;;;;;;22.92;13.35;;;;;;;5.16;92.67;100195.75;5073415;28;20097;-70
2020/12/22 01:36:13;;;;;;;28.00;14.10;;;;;;;5.14;92.98;100187.13;5055480;28;20411;-71
2020/12/22 01:38:38;;;;;;;26.90;15.30;;;;;;;5.17;92.96;100186.81;5073484;28;20036;-71
2020/12/22 01:41:03;;;;;;;21.63;13.70;;;;;;;5.19;92.88;100176.94;5073392;28;20052;-70
2020/12/22 01:43:28;;;;;;;22.20;12.90;;;;;;;5.22;93.00;100181.94;5073353;28;20036;-71
2020/12/22 01:45:54;;;;;;;21.67;13.00;;;;;;;5.27;92.82;100187.66;5072116;28;20044;-70
2020/12/22 01:48:19;;;;;;;20.63;13.33;;;;;;;5.28;92.76;100178.72;5073145;28;20036;-70
2020/12/22 01:50:45;;;;;;;22.50;12.07;;;;;;;5.31;92.68;100189.03;5073235;28;20082;-70
2020/12/22 01:53:10;;;;;;;23.10;14.05;;;;;;;5.27;92.56;100182.38;5055372;28;20032;-70
2020/12/22 01:55:41;;;;;;;22.33;13.37;;;;;;;5.28;92.76;100173.44;5072971;28;20039;-70
2020/12/22 01:58:06;;;;;;;19.80;12.45;;;;;;;5.30;92.92;100160.91;5072904;28;20066;-70
2020/12/22 02:00:31;;;;;;;21.90;12.63;;;;;;;5.28;92.88;100157.56;5072131;28;20408;-71
2020/12/22 02:02:57;;;;;;;20.67;12.40;;;;;;;5.31;92.79;100164.38;5054855;28;20131;-71
2020/12/22 02:05:22;;;;;;;20.33;12.10;;;;;;;5.33;92.72;100150.00;5072024;28;20469;-71
2020/12/22 02:07:47;;;;;;;24.47;14.53;;;;;;;5.30;92.76;100158.25;5072626;28;20036;-72
2020/12/22 02:10:13;;;;;;;21.40;12.70;;;;;;;5.32;92.72;100147.53;5071882;28;20130;-71
2020/12/22 02:12:40;;;;;;;20.87;13.13;;;;;;;5.33;92.58;100154.47;5072766;28;20040;-72
2020/12/22 02:15:06;;;;;;;19.00;11.13;;;;;;;5.37;92.45;100161.16;5071904;28;20032;-72
2020/12/22 02:17:31;;;;;;;22.02;14.10;;;;;;;5.39;92.46;100146.81;5071224;28;20448;-72
2020/12/22 02:19:56;;;;;;;19.83;12.13;;;;;;;5.35;92.61;100137.47;5072629;28;20040;-72
2020/12/22 02:22:22;;;;;;;20.90;11.90;;;;;;;5.37;92.49;100135.53;5072546;28;20071;-71
2020/12/22 02:24:47;;;;;;;19.17;12.00;;;;;;;5.37;92.59;100132.88;5071641;28;20044;-71
2020/12/22 02:27:12;;;;;;;22.00;12.33;;;;;;;5.38;92.59;100131.06;5072130;28;20106;-71
2020/12/22 02:29:38;;;;;;;17.63;11.00;;;;;;;5.43;92.65;100134.97;5071472;28;20036;-71
2020/12/22 02:32:03;;;;;;;17.83;11.00;;;;;;;5.46;92.55;100129.38;5071289;28;20040;-72
2020/12/22 02:34:28;;;;;;;18.67;11.73;;;;;;;5.41;92.42;100110.44;5072143;28;20046;-72
2020/12/22 02:36:54;;;;;;;17.90;11.67;;;;;;;5.44;92.63;100110.13;5054330;28;20115;-71
2020/12/22 02:39:19;;;;;;;14.73;9.13;;;;;;;5.49;92.50;100113.19;5071107;28;20111;-71
2020/12/22 02:41:45;;;;;;;15.13;9.95;;;;;;;5.54;92.31;100114.56;5072112;28;20036;-71
2020/12/22 02:44:10;;;;;;;16.97;10.10;;;;;;;5.54;92.30;100106.63;5072144;28;20339;-71
2020/12/22 02:46:35;;;;;;;16.80;10.33;;;;;;;5.50;92.51;100100.78;5071841;28;20051;-72
2020/12/22 02:49:01;;;;;;;15.97;10.33;;;;;;;5.50;92.65;100092.81;5070804;28;20127;-71
2020/12/22 02:51:31;;;;;;;15.77;9.65;;;;;;;5.50;92.48;100088.38;5072042;28;20370;-71
2020/12/22 02:53:56;;;;;;;16.10;9.88;;;;;;;5.54;92.57;100078.31;5071888;28;20481;-71
2020/12/22 02:56:21;;;;;;;19.80;9.67;;;;;;;5.54;92.65;100080.97;5071615;28;20036;-71
2020/12/22 02:58:50;;;;;;;13.87;9.40;;;;;;;5.59;92.61;100080.53;5071914;28;20275;-71
2020/12/22 03:01:15;;;;;;;15.30;8.73;;;;;;;5.62;92.54;100070.50;5070899;28;20040;-72
2020/12/22 03:03:41;;;;;;;14.83;8.87;;;;;;;5.60;92.72;100064.50;5071540;28;20083;-72
2020/12/22 03:06:06;;;;;;;16.40;9.43;;;;;;;5.61;92.80;100068.00;5071539;28;20036;-71
2020/12/22 03:08:31;;;;;;;14.20;8.20;;;;;;;5.62;92.77;100065.19;5071537;28;20047;-71
2020/12/22 03:10:57;;;;;;;14.73;9.07;;;;;;;5.63;92.82;100050.97;5070703;28;20048;-71
2020/12/22 03:13:22;;;;;;;17.73;9.93;;;;;;;5.62;92.94;100051.09;5053948;28;20043;-71
2020/12/22 03:15:47;;;;;;;14.53;8.77;;;;;;;5.66;93.10;100044.53;5053347;28;20500;-71
2020/12/22 03:18:13;;;;;;;14.63;8.50;;;;;;;5.69;92.99;100033.66;5071523;28;20523;-71
2020/12/22 03:20:38;;;;;;;17.43;9.63;;;;;;;5.71;92.99;100026.38;5071564;28;20503;-71
2020/12/22 03:23:03;;;;;;;14.70;7.77;;;;;;;5.76;93.14;100018.84;5070566;28;20047;-71
2020/12/22 03:25:29;;;;;;;14.83;8.17;;;;;;;5.79;93.10;100025.66;5071302;28;20370;-72
2020/12/22 03:27:54;;;;;;;17.97;7.93;;;;;;;5.80;93.08;100014.91;5070349;28;20040;-71
2020/12/22 03:30:20;;;;;;;16.87;9.13;;;;;;;5.77;93.37;100006.44;5071320;28;20048;-71
2020/12/22 03:32:45;;;;;;;16.27;9.50;;;;;;;5.78;93.38;100000.97;5071256;28;20036;-71
2020/12/22 03:35:11;;;;;;;21.33;8.50;;;;;;;5.83;93.20;99998.72;5070268;28;20036;-71
2020/12/22 03:37:38;;;;;;;14.45;7.85;;;;;;;5.84;93.24;99997.72;5070154;28;20118;-71
2020/12/22 03:40:04;;;;;;;;;;;;;;;5.84;93.21;99979.19;5070741;28;20032;-71
2020/12/22 03:42:30;;;;;;;18.48;9.35;;;;;;;5.86;93.20;99977.22;5070345;28;20019;-71
2020/12/22 03:44:55;;;;;;;14.40;8.63;;;;;;;5.92;93.32;99989.00;5071248;28;20103;-71
2020/12/22 03:47:21;;;;;;;13.27;8.10;;;;;;;5.92;93.29;99978.41;5069847;28;20633;-72
2020/12/22 03:49:46;;;;;;;12.57;8.05;;;;;;;5.92;93.30;99979.28;5070239;28;20109;-71
2020/12/22 03:52:11;;;;;;;15.70;9.73;;;;;;;5.91;93.41;99971.47;5070289;28;20058;-71
2020/12/22 03:54:37;;;;;;;15.83;8.73;;;;;;;5.93;93.29;99966.84;5070150;28;20047;-71
2020/12/22 03:57:04;;;;;;;11.83;7.47;;;;;;;5.97;93.53;99964.75;5069937;28;20040;-71
2020/12/22 03:59:30;;;;;;;14.00;7.75;;;;;;;5.99;93.35;99962.78;5071054;28;20032;-71
2020/12/22 04:01:55;;;;;;;16.95;9.13;;;;;;;5.99;93.34;99953.00;5071031;28;20025;-71
2020/12/22 04:04:23;;;;;;;15.23;9.17;;;;;;;5.98;93.45;99948.72;5069903;28;20052;-71
2020/12/22 04:06:49;;;;;;;13.30;8.70;;;;;;;6.03;93.49;99951.72;5070739;28;20048;-71
2020/12/22 04:09:16;;;;;;;12.77;8.55;;;;;;;6.04;93.56;99947.25;5069996;28;20025;-71
2020/12/22 04:11:41;;;;;;;16.48;10.00;;;;;;;6.07;93.39;99936.38;5070005;28;20051;-71
2020/12/22 04:14:10;;;;;;;16.73;8.30;;;;;;;6.05;93.43;99941.81;5070117;28;20123;-71
2020/12/22 04:16:39;;;;;;;21.45;9.85;;;;;;;6.08;93.70;99932.72;5069582;28;20048;-71
2020/12/22 04:19:05;;;;;;;15.18;8.95;;;;;;;6.09;93.70;99931.75;5070925;28;20025;-72
2020/12/22 04:21:31;;;;;;;15.85;9.38;;;;;;;6.13;93.67;99919.84;5070879;28;20040;-72
2020/12/22 04:23:57;;;;;;;14.68;8.07;;;;;;;6.16;93.71;99930.16;5069830;28;20048;-72
2020/12/22 04:26:23;;;;;;;15.52;8.88;;;;;;;6.15;93.67;99923.16;5069530;28;20044;-72
2020/12/22 04:28:49;;;;;;;13.52;7.88;;;;;;;6.15;93.62;99917.88;5073252;28;20347;-72
2020/12/22 04:31:15;;;;;;;14.32;7.75;;;;;;;6.23;93.83;99910.00;5073833;28;20040;-72
2020/12/22 04:33:40;;;;;;;;;;;;;;;6.26;93.56;99917.63;5074120;28;20079;-72
2020/12/22 04:36:06;;;;;;;;;;;;;;;6.26;93.65;99914.97;5074711;28;19955;-71
2020/12/22 04:38:31;;;;;;;12.83;7.37;;;;;;;6.26;93.64;99909.69;5074521;28;19916;-72
2020/12/22 04:40:58;;;;;;;14.00;7.90;;;;;;;6.29;93.79;99909.34;5074443;28;20045;-71
2020/12/22 04:43:24;;;;;;;12.95;7.97;;;;;;;6.32;93.65;99910.88;5074310;28;20036;-72
2020/12/22 04:45:50;;;;;;;13.40;7.70;;;;;;;6.36;93.88;99917.53;5073191;28;20090;-73
2020/12/22 04:48:19;;;;;;;16.83;8.20;;;;;;;6.36;93.91;99908.75;5074325;28;20029;-72
2020/12/22 04:50:47;;;;;;;13.25;8.38;;;;;;;6.35;93.81;99902.63;5073353;28;20055;-73
2020/12/22 04:53:12;;;;;;;13.73;8.10;;;;;;;6.36;93.93;99909.56;5074322;28;20130;-72
2020/12/22 04:55:38;;;;;;;15.20;9.07;;;;;;;6.37;93.95;99903.28;5056385;28;20115;-72
2020/12/22 04:58:05;;;;;;;15.20;8.47;;;;;;;6.43;93.90;99899.19;5073338;28;20044;-72
2020/12/22 05:00:31;;;;;;;13.63;7.90;;;;;;;6.45;93.76;99902.50;5074149;28;20036;-72
2020/12/22 05:02:58;;;;;;;14.02;8.18;;;;;;;6.49;93.84;99901.22;5072583;28;20040;-72
2020/12/22 05:05:23;;;;;;;16.05;8.20;;;;;;;6.47;93.83;99900.53;5073684;28;20526;-72
2020/12/22 05:07:49;;;;;;;15.10;8.30;;;;;;;6.44;93.98;99899.03;5073290;28;20040;-72
2020/12/22 05:10:14;;;;;;;12.30;7.80;;;;;;;6.52;93.99;99901.72;5073927;28;20103;-72
2020/12/22 05:12:41;;;;;;;13.97;8.17;;;;;;;6.49;93.98;99893.25;5072793;28;20139;-72
2020/12/22 05:15:08;;;;;;;15.18;8.65;;;;;;;6.54;94.00;99894.44;5073935;28;20197;-72
2020/12/22 05:17:44;;;;;;;14.20;8.18;;;;;;;6.56;93.97;99894.28;5073306;28;20033;-72
2020/12/22 05:20:13;;;;;;;16.38;8.93;;;;;;;6.57;94.14;99890.63;5071608;28;20033;-72
2020/12/22 05:22:38;;;;;;;17.33;8.98;;;;;;;6.61;94.14;99889.34;5073142;28;20036;-72
2020/12/22 05:25:05;;;;;;;14.52;7.38;;;;;;;6.63;94.18;99894.50;5073272;28;20115;-72
2020/12/22 05:27:31;;;;;;;13.77;8.73;;;;;;;6.63;94.23;99895.31;5055590;28;20664;-72
2020/12/22 05:30:00;;;;;;;15.05;8.40;;;;;;;6.66;94.10;99884.38;5073617;28;20040;-72
2020/12/22 05:32:32;;;;;;;16.40;9.18;;;;;;;6.65;94.19;99892.50;5074245;28;20507;-71
2020/12/22 05:34:59;;;;;;;14.25;7.82;;;;;;;6.68;94.40;99893.03;5078620;28;20442;-67
2020/12/22 05:37:25;;;;;;;15.48;8.13;;;;;;;6.73;94.30;99887.25;5072948;28;20040;-67
2020/12/22 05:39:51;;;;;;;;;;;;;;;6.73;94.41;99888.06;5073563;28;20032;-67
2020/12/22 05:42:18;;;;;;;16.60;8.75;;;;;;;6.72;94.37;99877.63;5073380;28;19946;-67
2020/12/22 05:44:47;;;;;;;;;;;;;;;6.75;94.45;99886.09;5072695;28;20408;-66
2020/12/22 05:47:16;;;;;;;17.17;8.70;;;;;;;6.78;94.40;99882.28;5071622;28;19931;-66
2020/12/22 05:49:55;;;;;;;13.55;7.75;;;;;;;6.86;94.72;99884.13;5072553;28;20029;-66
2020/12/22 05:52:25;;;;;;;17.10;8.50;;;;;;;6.95;94.54;99875.22;5072502;28;20365;-65
2020/12/22 05:54:55;;;;;;;12.40;6.90;;;;;;;7.03;94.48;99872.63;5053113;28;20033;-71
2020/12/22 05:57:22;;;;;;;14.10;7.65;;;;;;;7.04;94.44;99868.94;5072648;28;20098;-71
2020/12/22 05:59:48;;;;;;;14.52;7.53;;;;;;;7.06;94.54;99866.16;5072062;28;20428;-71
2020/12/22 06:02:28;;;;;;;13.77;7.78;;;;;;;7.08;94.45;99867.66;5055379;28;20036;-71
2020/12/22 06:04:56;;;;;;;13.95;7.28;;;;;;;7.10;94.54;99864.84;5072565;28;20086;-71
2020/12/22 06:07:21;;;;;;;11.52;6.93;;;;;;;7.12;94.50;99866.34;5054504;28;20090;-71
2020/12/22 06:09:47;;;;;;;15.73;8.30;;;;;;;7.12;94.42;99858.38;5072733;28;20037;-71
2020/12/22 06:12:12;;;;;;;14.68;6.38;;;;;;;7.16;94.33;99858.88;5071975;28;20365;-71
2020/12/22 06:14:42;;;;;;;11.13;6.10;;;;;;;7.21;94.48;99859.25;5071861;28;20420;-71
2020/12/22 06:17:12;;;;;;;11.40;5.95;;;;;;;7.24;94.46;99868.69;5071324;28;20109;-71
2020/12/22 06:19:39;;;;;;;10.80;5.82;;;;;;;7.25;94.58;99857.91;5071668;28;20047;-71
2020/12/22 06:22:07;;;;;;;10.63;6.40;;;;;;;7.27;94.58;99865.72;5071642;28;20461;-71
2020/12/22 06:24:33;;;;;;;8.55;4.68;;;;;;;7.31;94.74;99867.88;5054781;28;20039;-71
2020/12/22 06:27:11;;;;;;;10.23;5.85;;;;;;;7.34;94.67;99864.06;5072182;28;20438;-71
2020/12/22 06:29:40;;;;;;;9.85;5.40;;;;;;;7.39;94.60;99867.06;5071382;28;20102;-71
2020/12/22 06:32:28;;;;;;;11.15;5.35;;;;;;;7.39;94.69;99869.72;5071577;28;20036;-71
2020/12/22 06:34:56;;;;;;;7.82;4.57;;;;;;;7.44;94.65;99867.38;5071291;28;20033;-71
2020/12/22 06:37:23;;;;;;;10.30;5.28;;;;;;;7.52;94.71;99867.41;5072045;28;20044;-71
2020/12/22 06:39:50;;;;;;;8.98;4.57;;;;;;;7.55;94.63;99872.38;5054543;28;20032;-71
2020/12/22 06:42:28;;;;;;;8.25;3.75;;;;;;;7.59;94.63;99867.59;5072140;28;20365;-71
2020/12/22 06:44:53;;;;;;;7.93;4.93;;;;;;;7.61;94.60;99869.09;5071149;28;20041;-71
2020/12/22 06:47:33;;;;;;;8.97;4.53;;;;;;;7.61;94.71;99868.25;5054252;28;20031;-71
2020/12/22 06:49:59;;;;;;;9.63;4.93;;;;;;;7.65;94.68;99863.44;5071445;28;20029;-71
2020/12/22 06:52:27;;;;;;;9.23;5.37;;;;;;;7.67;94.54;99872.06;5054471;28;20473;-71
2020/12/22 06:54:52;;;;;;;7.97;4.57;;;;;;;7.68;94.65;99871.06;5070958;28;20046;-71
2020/12/22 06:57:44;;;;;;;9.33;5.17;;;;;;;7.69;94.59;99867.44;5071742;28;20055;-71
2020/12/22 07:00:29;;;;;;;10.32;4.90;;;;;;;7.75;94.70;99866.75;5070835;28;20093;-71
2020/12/22 07:03:16;;;;;;;7.50;3.77;;;;;;;7.76;94.70;99874.56;5071640;28;20040;-71
2020/12/22 07:05:46;;;;;;;8.77;5.35;;;;;;;7.76;94.66;99877.22;5070480;28;20314;-72
2020/12/22 07:08:13;;;;;;;11.70;5.90;;;;;;;7.82;94.70;99873.91;5054282;28;20043;-71
2020/12/22 07:10:45;;;;;;;13.77;6.53;;;;;;;7.81;94.85;99882.88;5071707;28;20056;-72
2020/12/22 07:13:12;;;;;;;10.00;5.88;;;;;;;7.89;94.91;99879.41;5071671;28;20166;-71
2020/12/22 07:15:44;;;;;;;9.75;5.10;;;;;;;7.94;95.04;99885.03;5070387;28;20120;-71
2020/12/22 07:18:12;;;;;;;11.63;5.60;;;;;;;8.00;95.02;99889.69;5071614;28;20044;-71
2020/12/22 07:20:42;;;;;;;8.77;5.43;;;;;;;8.05;94.83;99891.84;5071479;28;20043;-71
2020/12/22 07:23:09;;;;;;;8.55;4.82;;;;;;;8.09;94.88;99892.34;5071607;28;20032;-72
2020/12/22 07:25:36;;;;;;;8.80;4.57;;;;;;;8.11;95.06;99893.84;5071264;28;20036;-71
2020/12/22 07:28:03;;;;;;;8.45;4.68;;;;;;;8.17;94.83;99895.84;5070326;28;20051;-71
2020/12/22 07:30:28;;;;;;;8.30;3.92;;;;;;;8.21;95.11;99898.97;5071273;28;20094;-71
2020/12/22 07:32:57;;;;;;;8.47;4.47;;;;;;;8.27;94.83;99894.84;5069233;28;20036;-71
2020/12/22 07:35:22;;;;;;;11.80;4.00;;;;;;;8.29;94.94;99900.78;5069918;28;20037;-71
2020/12/22 07:37:48;;;;;;;6.77;3.93;;;;;;;8.26;94.84;99896.63;5069840;28;20036;-71
2020/12/22 07:40:13;;;;;;;8.87;3.00;;;;;;;8.28;94.96;99904.47;5070273;28;20059;-72
2020/12/22 07:42:38;;;;;;;6.77;2.73;;;;;;;8.45;95.15;99906.97;5068581;28;20036;-71
2020/12/22 07:45:06;;;;;;;11.70;2.83;;;;;;;8.42;94.79;99915.25;5069528;28;20476;-72
2020/12/22 07:47:31;;;;;;;6.72;2.30;;;;;;;8.49;95.03;99918.09;5069308;28;20472;-71
2020/12/22 07:50:14;;;;;;;3.20;2.07;;;;;;;8.52;95.06;99916.91;5070458;28;20055;-71
2020/12/22 07:52:40;;;;;;;6.07;2.00;;;;;;;8.57;95.12;99922.56;5069234;28;20040;-72
2020/12/22 07:55:07;;;;;;;5.07;1.87;;;;;;;8.57;94.94;99915.41;5069549;28;20055;-71
2020/12/22 07:57:36;;;;;;;2.67;1.52;;;;;;;8.65;95.02;99915.38;5069387;28;20340;-72
2020/12/22 08:00:10;;;;;;;2.60;1.65;;;;;;;8.67;94.94;99917.88;5068784;28;20036;-71
2020/12/22 08:02:36;;;;;;;5.15;1.98;;;;;;;8.72;94.95;99922.69;5071258;28;20025;-72
2020/12/22 08:05:09;;;;;;;2.38;1.83;;;;;;;8.71;94.98;99926.34;5073913;28;20335;-72
2020/12/22 08:07:35;;;;;;;3.03;1.92;;;;;;;8.78;95.06;99922.84;5070036;28;20028;-72
2020/12/22 08:10:16;;;;;;;4.50;2.80;;;;;;;8.83;95.04;99930.31;5074684;28;20764;-71
2020/12/22 08:13:00;;;;;;;3.75;1.98;;;;;;;8.85;94.91;99936.31;5072459;28;20055;-72
2020/12/22 08:15:25;;;;;;;3.92;2.70;;;;;;;8.85;94.85;99929.16;5074312;28;20036;-72
2020/12/22 08:17:55;;;;;;;5.80;2.80;;;;;;;8.84;94.79;99935.47;5073207;28;20558;-72
2020/12/22 08:20:22;;;;;;;6.78;3.10;;;;;;;8.88;94.91;99941.28;5073227;28;20131;-72
2020/12/22 08:22:48;;;;;;;5.32;2.95;;;;;;;8.91;95.02;99948.09;5073752;28;20031;-72
2020/12/22 08:25:14;;;;;;;6.97;3.37;;;;;;;8.97;94.94;99947.44;5073850;28;20028;-72
2020/12/22 08:27:39;;;;;;;6.45;3.60;;;;;;;8.99;95.04;99961.38;5064140;28;20032;-72
2020/12/22 08:30:21;;;;;;;8.70;3.47;;;;;;;9.02;94.80;99953.06;5074608;28;20068;-72
2020/12/22 08:32:47;;;;;;;6.35;3.58;;;;;;;8.99;94.79;99956.91;5074340;28;20086;-72
2020/12/22 08:35:20;;;;;;;7.33;3.77;;;;;;;8.99;95.00;99964.03;5074521;28;20028;-72
2020/12/22 08:37:45;;;;;;;6.57;4.07;;;;;;;9.00;94.80;99965.72;5073350;28;20079;-72
2020/12/22 08:40:25;;;;;;;7.53;4.43;;;;;;;8.97;94.86;99972.22;5073475;28;20064;-72
2020/12/22 08:42:51;;;;;;;6.93;3.88;;;;;;;9.05;94.92;99969.50;5074323;28;20040;-72
2020/12/22 08:45:16;;;;;;;8.95;3.63;;;;;;;9.06;94.90;99970.31;5073294;28;20048;-72
2020/12/22 08:47:50;;;;;;;6.70;3.73;;;;;;;9.08;94.80;99973.66;5073993;28;20040;-72
2020/12/22 08:50:16;;;;;;;9.88;3.90;;;;;;;9.06;94.67;99978.31;5074178;28;20537;-72
2020/12/22 08:52:41;;;;;;;9.90;4.77;;;;;;;9.02;94.79;99979.69;5074158;28;20449;-72
2020/12/22 08:55:10;;;;;;;8.57;4.40;;;;;;;9.01;94.87;99994.84;5074096;28;20063;-72
2020/12/22 08:57:36;;;;;;;10.52;4.28;;;;;;;9.04;94.85;100004.31;5073463;28;20044;-72
2020/12/22 09:00:15;;;;;;;9.93;3.83;;;;;;;9.08;94.74;100010.94;5070769;28;20062;-72
2020/12/22 09:02:43;;;;;;;9.48;4.47;;;;;;;9.03;94.77;100006.13;5053840;28;20060;-71
2020/12/22 09:05:14;;;;;;;13.90;4.40;;;;;;;9.06;94.66;100012.94;5052913;28;20037;-72
2020/12/22 09:07:40;;;;;;;12.45;5.45;;;;;;;9.12;94.61;100028.25;5052613;28;20415;-71
2020/12/22 09:10:06;;;;;;;12.60;6.20;;;;;;;9.03;94.57;100024.75;5054237;28;20074;-71
2020/12/22 09:12:32;;;;;;;14.40;5.03;;;;;;;9.07;94.67;100020.75;5072431;28;20366;-71
2020/12/22 09:15:00;;;;;;;14.07;6.77;;;;;;;9.07;94.45;100027.91;5056021;28;20032;-72
2020/12/22 09:17:26;;;;;;;11.07;4.53;;;;;;;9.06;94.33;100024.44;5072382;28;20072;-71
2020/12/22 09:19:52;;;;;;;9.20;4.75;;;;;;;9.07;94.31;100036.72;5072768;28;20170;-72
2020/12/22 09:22:23;;;;;;;8.63;4.10;;;;;;;9.06;94.20;100042.22;5072504;28;20033;-71
2020/12/22 09:24:56;;;;;;;8.05;4.40;;;;;;;9.08;94.05;100048.22;5070848;28;20450;-71
2020/12/22 09:27:31;;;;;;;9.95;3.90;;;;;;;9.06;93.99;100050.22;5071540;28;20051;-72
2020/12/22 09:29:58;;;;;;;13.05;4.55;;;;;;;9.03;93.72;100051.38;5071194;28;20036;-72
2020/12/22 09:32:24;;;;;;;16.65;4.63;;;;;;;9.02;93.86;100057.72;5069625;28;20075;-72
2020/12/22 09:34:49;;;;;;;10.38;4.90;;;;;;;9.01;93.79;100058.72;5070348;28;20033;-71
2020/12/22 09:37:14;;;;;;;13.53;5.30;;;;;;;9.02;93.71;100070.22;5070141;28;20032;-71
2020/12/22 09:39:40;;;;;;;13.87;6.40;;;;;;;8.95;93.75;100077.22;5052772;28;20032;-71
2020/12/22 09:42:06;;;;;;;19.45;6.65;;;;;;;8.94;93.62;100073.69;5052837;28;20115;-72
2020/12/22 09:44:33;;;;;;;13.50;6.25;;;;;;;8.88;93.56;100083.19;5070787;28;20049;-72
2020/12/22 09:46:59;;;;;;;13.32;6.10;;;;;;;8.93;93.66;100087.19;5072837;28;20048;-71
2020/12/22 09:49:25;;;;;;;12.97;5.87;;;;;;;8.90;93.53;100083.03;5072301;28;20037;-72
2020/12/22 09:51:51;;;;;;;10.32;5.07;;;;;;;8.93;93.52;100092.50;5073178;28;20040;-72
2020/12/22 09:54:17;;;;;;;15.27;6.60;;;;;;;8.91;93.42;100103.31;5072127;28;20036;-72
2020/12/22 09:56:42;;;;;;;19.48;6.78;;;;;;;8.87;93.45;100092.19;5072926;28;20043;-72
2020/12/22 09:59:08;;;;;;;9.97;5.23;;;;;;;8.85;93.30;100093.38;5072992;28;20063;-72
2020/12/22 10:01:33;;;;;;;13.88;6.88;;;;;;;8.85;93.09;100093.38;5073055;28;20041;-72
2020/12/22 10:03:59;;;;;;;11.40;6.13;;;;;;;8.84;93.14;100105.00;5071821;28;20127;-72
2020/12/22 10:06:26;;;;;;;14.17;6.87;;;;;;;8.81;93.04;100110.66;5071687;28;20095;-72
2020/12/22 10:08:52;;;;;;;12.98;6.70;;;;;;;8.80;93.01;100109.84;5072812;28;20052;-72
2020/12/22 10:11:20;;;;;;;10.52;6.57;;;;;;;8.82;92.74;100120.28;5072818;28;20050;-72
2020/12/22 10:13:46;;;;;;;11.95;5.13;;;;;;;8.79;92.40;100123.28;5072090;28;20025;-67
2020/12/22 10:16:20;;;;;;;12.23;5.93;;;;;;;8.78;92.13;100119.81;5071563;28;20535;-67
2020/12/22 10:18:46;;;;;;;14.38;6.40;;;;;;;8.72;92.31;100133.75;5071735;28;20039;-67
2020/12/22 10:21:13;;;;;;;15.68;7.10;;;;;;;8.74;92.31;100141.59;5071694;28;20103;-67
2020/12/22 10:23:41;;;;;;;15.25;7.82;;;;;;;8.71;92.43;100132.13;5072533;28;20040;-67
2020/12/22 10:26:08;;;;;;;12.93;6.15;;;;;;;8.75;92.29;100138.75;5071278;28;20136;-68
2020/12/22 10:28:35;;;;;;;12.30;6.47;;;;;;;8.68;92.37;100148.41;5071400;28;20041;-67
2020/12/22 10:31:02;;;;;;;14.60;6.82;;;;;;;8.68;92.32;100148.41;5072360;28;20086;-67
2020/12/22 10:33:27;;;;;;;14.40;7.90;;;;;;;8.65;92.56;100149.56;5072267;28;20043;-67
2020/12/22 10:35:53;;;;;;;19.88;8.25;;;;;;;8.60;92.26;100153.72;5072055;28;20036;-68
2020/12/22 10:38:19;;;;;;;19.85;8.68;;;;;;;8.57;92.34;100154.03;5054742;28;20055;-68
2020/12/22 10:40:45;;;;;;;20.75;9.63;;;;;;;8.47;92.45;100148.03;5068859;28;20461;-67
2020/12/22 10:43:11;;;;;;;34.30;9.23;;;;;;;8.43;92.19;100156.34;5061832;28;20053;-67
2020/12/22 10:45:37;;;;;;;26.10;9.70;;;;;;;8.39;92.30;100165.63;5056590;28;20046;-67
2020/12/22 10:48:04;;;;;;;29.90;8.95;;;;;;;8.36;92.29;100167.78;5052587;28;20465;-68
2020/12/22 10:50:29;;;;;;;41.13;10.93;;;;;;;8.32;92.29;100175.22;5067047;28;20465;-68
2020/12/22 10:52:55;;;;;;;22.00;8.80;;;;;;;8.20;92.01;100180.03;5052003;28;20043;-67
2020/12/22 10:55:21;;;;;;;19.90;6.97;;;;;;;8.17;91.69;100190.13;5068294;28;20140;-68
2020/12/22 10:57:47;;;;;;;;;;;;;;;8.11;91.49;100193.44;5071090;28;20032;-68
2020/12/22 11:00:12;;;;;;;;;;;;;;;8.08;91.41;100196.41;5063150;28;20352;-67
2020/12/22 11:02:38;;;;;;;11.27;4.73;;;;;;;8.00;91.08;100203.34;5068379;28;19912;-68
2020/12/22 11:05:04;;;;;;;15.95;5.10;;;;;;;8.05;91.12;100200.22;5071393;28;20036;-68
2020/12/22 11:07:38;;;;;;;14.07;5.50;;;;;;;8.14;90.91;100204.59;5070471;28;20047;-67
2020/12/22 11:10:04;;;;;;;9.95;4.05;;;;;;;8.21;90.71;100204.78;5071551;28;20041;-68
2020/12/22 11:12:29;;;;;;;11.98;3.97;;;;;;;8.23;90.23;100213.44;5070748;28;20127;-68
2020/12/22 11:14:55;;;;;;;6.77;3.27;;;;;;;8.31;90.02;100215.28;5070719;28;20111;-68
2020/12/22 11:17:20;;;;;;;10.07;3.27;;;;;;;8.22;89.37;100217.94;5071287;28;20830;-68
2020/12/22 11:19:45;;;;;;;4.30;2.10;;;;;;;8.17;89.23;100220.25;5071593;28;20047;-68
2020/12/22 11:22:11;;;;;;;5.07;2.10;;;;;;;8.12;89.07;100227.00;5071489;28;20040;-68
2020/12/22 11:24:36;;;;;;;5.30;2.57;;;;;;;8.13;88.69;100228.69;5053931;28;20043;-68
2020/12/22 11:27:02;;;;;;;7.70;2.57;;;;;;;8.11;88.54;100236.00;5071138;28;20028;-68
2020/12/22 11:29:27;;;;;;;9.20;2.95;;;;;;;8.07;88.89;100243.44;5071314;28;20468;-68
2020/12/22 11:31:52;;;;;;;8.30;2.87;;;;;;;8.06;89.26;100248.94;5070182;28;20040;-68